Tiempo atmosférico en la estación meteorológica de Ordizia, Gipuzkoa (290 m.)



Fecha
DESCASC
Temp. máxima en grados centígrados (hora)
DESCASC
Temp. mínima en grados centígrados (hora)
DESCASC
Temp. media en grados centígrados
DESCASC
Racha de viento máxima en m/sg (hora)
DESCASC
Velocidad máxima media en intervalos de 10 minutos(hora)
DESCASC
Precipitaciones diarias en mm
DESCASC
Precipitaciones de 00:00 a 06:00 en mm
DESCASC
Precipitaciones de 06:00 a 12:00 en mm
DESCASC
Precipitaciones de 12:00 a 18:00 en mm
DESCASC
Precipitaciones de 18:00 a 24:00 en mm
DESCASC
15-08-2019 21.8 (18:20) 14.5 (23:59) 18.1 6.39 (15:20) 3.89 (14:10) 0 0 0 0 0
14-08-2019 27.2 (15:00) 10.1 (00:00) 18.7 6.39 (18:40) 3.61 (15:30) 0.4 0.2 0.2 0 0
13-08-2019 21.4 (16:00) 13.2 (00:00) 17.3 7.5 (14:00) 4.72 (14:40) 0.4 0 0.4 0 0
12-08-2019 20.5 (16:00) 12.3 (00:00) 16.4 10 (12:20) 4.72 (16:10) 2.6 0 2.4 0.2 0
11-08-2019 20.1 (16:40) 15.5 (00:00) 17.8 6.94 (07:30) 4.17 (15:00) 0.2 0 0 0.2 0
10-08-2019 22.5 (14:50) 16.6 (00:00) 19.6 8.33 (16:20) 5.28 (16:20) 0 0 0 0 0
09-08-2019 32 (12:50) 18.1 (00:00) 25.1 14.44 (03:40) 7.22 (03:50) 0 0 0 0 0
08-08-2019 33 (17:00) 19.7 (00:00) 26.4 8.89 (17:20) 5.28 (17:10) 0 0 0 0 0
07-08-2019 26.9 (16:10) 17.2 (00:00) 22.1 5.83 (13:00) 3.89 (14:10) 0.6 0.2 0.2 0 0.2
06-08-2019 27.4 (15:10) 17.5 (00:00) 22.4 7.78 (17:40) 5 (17:00) 0.2 0 0.2 0 0
05-08-2019 22.8 (14:50) 17.8 (00:00) 20.3 5 (18:30) 3.33 (18:30) 0 0 0 0 0
04-08-2019 23.7 (14:30) 18.8 (00:00) 21.3 5.28 (15:50) 3.33 (18:30) 0 0 0 0 0
03-08-2019 29.1 (16:20) 16.4 (00:00) 22.8 8.06 (16:40) 4.44 (19:10) 0 0 0 0 0
02-08-2019 24.7 (15:40) 16.9 (00:00) 20.8 6.39 (18:50) 3.33 (13:10) 1.6 1.4 0.2 0 0
01-08-2019 25.5 (14:50) 15.8 (00:00) 20.7 9.72 (06:40) 5.28 (05:30) 57.2 13.6 43.2 0.4 0
31-07-2019 23 (16:00) 11.1 (00:00) 17.1 7.22 (12:10) 4.44 (15:10) 0 0 0 0 0
30-07-2019 20.5 (15:50) 14.3 (00:00) 17.4 7.78 (13:20) 3.89 (13:20) 0 0 0 0 0
29-07-2019 27.3 (13:10) 12.8 (00:00) 20 10.28 (16:10) 5 (14:10) 0 0 0 0 0
28-07-2019 22.2 (18:30) 13.9 (00:00) 18.1 7.22 (16:00) 3.89 (16:00) 2 1.4 0.2 0.4 0
27-07-2019 18.3 (18:20) 14.2 (00:00) 16.2 8.33 (19:50) 4.17 (19:50) 25.2 1.6 15.8 7.2 0.6
26-07-2019 20.6 (00:00) 16.3 (00:00) 18.4 6.11 (08:20) 3.61 (08:20) 10 5.4 3.8 0.2 0.6
25-07-2019 37.3 (14:20) 20.6 (00:00) 28.9 12.22 (11:50) 8.06 (12:10) 17 0 0 0 17
24-07-2019 38.6 (15:30) 17.8 (00:00) 28.2 12.22 (19:20) 6.67 (17:00) 0 0 0 0 0
23-07-2019 38.8 (16:40) 19.8 (00:00) 29.3 22.22 (19:30) 12.22 (19:30) 0 0 0 0 0
22-07-2019 35.3 (16:30) 17.8 (00:00) 26.5 6.67 (18:50) 3.61 (13:00) 0 0 0 0 0
21-07-2019 26 (13:00) 18.3 (00:00) 22.1 8.06 (15:20) 4.72 (15:30) 2.2 2.2 0 0 0
20-07-2019 23.7 (11:40) 19.1 (00:00) 21.4 6.11 (15:30) 3.61 (15:30) 0 0 0 0 0
19-07-2019 30.8 (16:20) 12.7 (00:00) 21.7 8.61 (17:40) 4.72 (18:30) 0 0 0 0 0
18-07-2019 23.5 (16:30) 15.5 (00:00) 19.5 7.5 (18:10) 4.44 (13:00) 0.2 0.2 0 0 0

Gráficas

Temp. máximas Temp. mínimas Temp. medias Precipitaciones Rachas de viento máximas Velocidades máximas media en intervalos de 10 minutos

Datos horarios

Fecha y hora oficial Temperatura (ºC) Velocidad del viento (km/h) Dirección del viento Racha (km/h) Dirección de racha Precipitación (mm) Presión (hPa) Tendencia (hPa) Humedad (%)
2019-08-16 23:00:00 19.3 2 Oeste 6 Este 0 -- -- 75
2019-08-16 22:00:00 21 2 Sur 6 Sudeste 0 -- -- 70
2019-08-16 21:00:00 22.6 0 Calma 10 Este 0 -- -- 70
2019-08-16 20:00:00 24.1 4 Nordeste 18 Este 0 -- -- 65
2019-08-16 19:00:00 25 13 Este 24 Este 0 -- -- 65
2019-08-16 18:00:00 26.4 14 Este 27 Nordeste 0 -- -- 65
2019-08-16 17:00:00 28 11 Este 24 Este 0 -- -- 56
2019-08-16 16:00:00 28.8 11 Este 21 Este 0 -- -- 48
2019-08-16 15:00:00 28.6 10 Este 17 Este 0 -- -- 48
2019-08-16 14:00:00 26.1 5 Este 13 Oeste 0 -- -- 59
2019-08-16 13:00:00 23.2 6 Este 11 Sudeste 0 -- -- 61
2019-08-16 12:00:00 19.7 3 Sudeste 10 Sudeste 0 -- -- 72
2019-08-16 11:00:00 15.4 4 Sudeste 9 Sudeste 0 -- -- 100
2019-08-16 10:00:00 12.5 2 Oeste 6 Este 0 -- -- 100
2019-08-16 09:00:00 11.7 3 Noroeste 6 Sur 0 -- -- 100
2019-08-16 08:00:00 11.5 2 Oeste 6 Sur 0 -- -- 100
2019-08-16 07:00:00 11.7 3 Oeste 5 Noroeste 0 -- -- 100
2019-08-16 06:00:00 11.8 0 Calma 5 Oeste 0 -- -- 99
2019-08-16 05:00:00 12 2 Noroeste 7 Sudeste 0 -- -- 99
2019-08-16 04:00:00 12.2 3 Noroeste 4 Noroeste 0 -- -- 98
2019-08-16 03:00:00 12.4 0 Calma 4 Oeste 0 -- -- 98
2019-08-16 02:00:00 12.9 0 Calma 5 Sur 0 -- -- 96
2019-08-16 01:00:00 13.5 4 Noroeste 5 Noroeste 0 -- -- 95
2019-08-16 00:00:00 14.5 2 Sudoeste 5 Sudoeste 0 -- -- 90
2019-08-15 23:00:00 15.6 2 Sudeste 4 Oeste 0 -- -- 87
2019-08-15 22:00:00 16.9 3 Sudeste 11 Norte 0 -- -- 81
2019-08-15 21:00:00 18 5 Norte 17 Norte 0 -- -- 76
2019-08-15 20:00:00 20 5 Nordeste 17 Norte 0 -- -- 67
2019-08-15 19:00:00 21.6 5 Norte 17 Este 0 -- -- 65
2019-08-15 18:00:00 21.5 10 Este 23 Este 0 -- -- 67
2019-08-15 17:00:00 20.7 8 Nordeste 23 Este 0 -- -- 71
2019-08-15 16:00:00 20.7 6 Noroeste 23 Este 0 -- -- 71
2019-08-15 15:00:00 21.2 7 Este 22 Sudeste 0 -- -- 75
2019-08-15 14:00:00 21.6 12 Este 22 Este 0 -- -- 76
2019-08-15 13:00:00 20.1 5 Este 15 Este 0 -- -- 79
2019-08-15 12:00:00 19.4 5 Sudeste 18 Noroeste 0 -- -- 81
2019-08-15 11:00:00 19 5 Este 10 Sudeste 0 -- -- 86
2019-08-15 10:00:00 18.4 5 Sudeste 8 Sudeste 0 -- -- 95
2019-08-15 09:00:00 17.5 3 Norte 11 Nordeste 0 -- -- 98
2019-08-15 08:00:00 17.4 5 Noroeste 15 Noroeste 0 -- -- 98
2019-08-15 07:00:00 17.8 3 Este 6 Este 0 -- -- 98
2019-08-15 06:00:00 18.1 0 Calma 5 Noroeste 0 -- -- 98
2019-08-15 05:00:00 17.9 2 Noroeste 5 Este 0 -- -- 97
2019-08-15 04:00:00 18.1 0 Calma 4 Este 0 -- -- 96
2019-08-15 03:00:00 18.4 0 Calma 3 Este 0 -- -- 93
2019-08-15 02:00:00 18.8 0 Calma 5 Norte 0 -- -- 91
2019-08-15 01:00:00 19.1 2 Oeste 7 Este 0 -- -- 87
2019-08-15 00:00:00 19.5 0 Calma 4 Oeste 0 -- -- 82
2019-08-14 23:00:00 20.3 0 Calma 12 Norte 0 -- -- 77
2019-08-14 22:00:00 20.9 3 Nordeste 9 Norte 0 -- -- 73
2019-08-14 21:00:00 21.8 5 Noroeste 16 Noroeste 0 -- -- 69
2019-08-14 20:00:00 23 4 Norte 19 Este 0 -- -- 60
2019-08-14 19:00:00 23.8 7 Nordeste 23 Este 0 -- -- 56
2019-08-14 18:00:00 25.7 7 Nordeste 17 Noroeste 0 -- -- 54
2019-08-14 17:00:00 26.7 9 Norte 22 Este 0 -- -- 48
2019-08-14 16:00:00 26.8 9 Este 21 Este 0 -- -- 54
2019-08-14 15:00:00 27.2 7 Este 18 Este 0 -- -- 51
2019-08-14 14:00:00 25.8 9 Este 15 Este 0 -- -- 49
2019-08-14 13:00:00 23.6 3 Norte 13 Sudeste 0 -- -- 50
2019-08-14 12:00:00 20.8 5 Sudeste 12 Sudeste 0 -- -- 60
2019-08-14 11:00:00 17.4 4 Sudeste 10 Este 0.2 -- -- 75
2019-08-14 10:00:00 14 4 Sudeste 6 Sudeste 0 -- -- 99
2019-08-14 09:00:00 10.6 4 Noroeste 5 Sudeste 0 -- -- 100
2019-08-14 08:00:00 10.2 3 Sudeste 6 Oeste 0 -- -- 100
2019-08-14 07:00:00 10.4 5 Oeste 8 Oeste 0 -- -- 100
2019-08-14 06:00:00 10.3 0 Calma 4 Noroeste 0 -- -- 99
2019-08-14 05:00:00 10.7 0 Calma 4 Sudeste 0 -- -- 98
2019-08-14 04:00:00 11.1 4 Oeste 7 Oeste 0 -- -- 98
2019-08-14 03:00:00 11.5 0 Calma 4 Oeste 0.2 -- -- 97
2019-08-14 02:00:00 12 0 Calma 5 Sur 0 -- -- 94
2019-08-14 01:00:00 12.6 2 Sur 5 Sudeste 0 -- -- 93
2019-08-14 00:00:00 13.3 3 Noroeste 5 Oeste 0 -- -- 91
2019-08-13 23:00:00 14.3 5 Oeste 7 Oeste 0 -- -- 86
2019-08-13 22:00:00 16.1 3 Este 10 Norte 0 -- -- 76
2019-08-13 21:00:00 17.2 5 Norte 15 Norte 0 -- -- 72
2019-08-13 20:00:00 19.3 5 Norte 15 Norte 0 -- -- 64
2019-08-13 19:00:00 19.9 6 Este 20 Este 0 -- -- 61
2019-08-13 18:00:00 20.2 10 Este 26 Este 0 -- -- 60
2019-08-13 17:00:00 20.3 11 Este 24 Sudeste 0 -- -- 61
2019-08-13 16:00:00 21.4 10 Este 23 Este 0 -- -- 59
2019-08-13 15:00:00 20.5 9 Este 24 Sudeste 0 -- -- 63
2019-08-13 14:00:00 20.3 15 Este 27 Este 0 -- -- 68
2019-08-13 13:00:00 17.5 9 Este 18 Este 0 -- -- 74
2019-08-13 12:00:00 16.7 5 Este 10 Sudeste 0 -- -- 85
2019-08-13 11:00:00 16.9 3 Este 13 Sudeste 0 -- -- 84
2019-08-13 10:00:00 15.1 2 Sur 5 Sur 0.4 -- -- 99
2019-08-13 09:00:00 13.6 0 Calma 6 Sudeste 0 -- -- 99
2019-08-13 08:00:00 13.4 2 Oeste 4 Oeste 0 -- -- 99
2019-08-13 07:00:00 13.3 3 Noroeste 5 Noroeste 0 -- -- 98
2019-08-13 06:00:00 13.3 2 Este 4 Oeste 0 -- -- 98
2019-08-13 05:00:00 13.3 3 Este 8 Noroeste 0 -- -- 98
2019-08-13 04:00:00 13.3 2 Este 4 Este 0 -- -- 98
2019-08-13 03:00:00 13.2 4 Noroeste 5 Oeste 0 -- -- 97
2019-08-13 02:00:00 13.3 0 Calma 4 Sudoeste 0 -- -- 96
2019-08-13 01:00:00 13.5 2 Sudoeste 6 Oeste 0 -- -- 95
2019-08-13 00:00:00 13.9 0 Calma 8 Noroeste 0 -- -- 94
2019-08-12 23:00:00 14.4 7 Este 11 Este 0 -- -- 92
2019-08-12 22:00:00 15.2 0 Calma 7 Noroeste 0 -- -- 88
2019-08-12 21:00:00 15.9 3 Este 6 Nordeste 0 -- -- 87
2019-08-12 20:00:00 16.5 3 Oeste 12 Noroeste 0 -- -- 84
2019-08-12 19:00:00 17.2 5 Sudeste 26 Noroeste 0 -- -- 73
2019-08-12 18:00:00 16.3 12 Noroeste 26 Noroeste 0 -- -- 79
2019-08-12 17:00:00 18.2 10 Norte 30 Noroeste 0 -- -- 71
2019-08-12 16:00:00 20.5 7 Norte 25 Noroeste 0.2 -- -- 62
2019-08-12 15:00:00 18.6 14 Este 26 Este 0 -- -- 73
2019-08-12 14:00:00 18.8 6 Sudeste 22 Sudeste 0 -- -- 73
2019-08-12 13:00:00 16.2 10 Sudeste 36 Oeste 0 -- -- 87
2019-08-12 12:00:00 19 8 Sudeste 15 Sudeste 0.2 -- -- 77
2019-08-12 11:00:00 17 3 Nordeste 10 Sudoeste 0 -- -- 77
2019-08-12 10:00:00 15.9 2 Sudoeste 5 Sur 0.6 -- -- 84
2019-08-12 09:00:00 14.5 0 Calma 5 Sudeste 1.6 -- -- 98
2019-08-12 08:00:00 12.6 3 Oeste 7 Noroeste 0 -- -- 99
2019-08-12 07:00:00 12.6 3 Oeste 6 Oeste 0 -- -- 97
2019-08-12 06:00:00 13.2 2 Sudeste 5 Este 0 -- -- 97
2019-08-12 05:00:00 13.8 2 Sudoeste 7 Oeste 0 -- -- 97
2019-08-12 04:00:00 14.4 0 Calma 4 Sudoeste 0 -- -- 97
2019-08-12 03:00:00 14.8 2 Oeste 5 Noroeste 0 -- -- 97
2019-08-12 02:00:00 15.1 3 Noroeste 7 Este 0 -- -- 97
2019-08-12 01:00:00 15.2 4 Este 7 Este 0 -- -- 96
2019-08-12 00:00:00 15.5 4 Este 6 Este 0 -- -- 93
2019-08-11 23:00:00 15.6 2 Sudeste 11 Oeste 0 -- -- 92
2019-08-11 22:00:00 16.2 3 Sudoeste 14 Nordeste 0 -- -- 88
2019-08-11 21:00:00 16.7 6 Nordeste 17 Norte 0 -- -- 81
2019-08-11 20:00:00 18.4 6 Nordeste 12 Noroeste 0 -- -- 81
2019-08-11 19:00:00 18.8 3 Oeste 19 Nordeste 0 -- -- 79
2019-08-11 18:00:00 18.9 8 Norte 22 Noroeste 0.2 -- -- 78
2019-08-11 17:00:00 19.8 9 Este 23 Este 0 -- -- 79
2019-08-11 16:00:00 18.8 12 Este 23 Este 0 -- -- 86
2019-08-11 15:00:00 19.6 15 Este 22 Este 0 -- -- 85
2019-08-11 14:00:00 18.7 4 Norte 12 Sudeste 0 -- -- 89
2019-08-11 13:00:00 18 4 Oeste 9 Noroeste 0 -- -- 92
2019-08-11 12:00:00 17.3 3 Oeste 9 Este 0 -- -- 97
2019-08-11 11:00:00 16.2 5 Este 12 Este 0 -- -- 98
2019-08-11 10:00:00 16.1 4 Nordeste 10 Este 0 -- -- 100
2019-08-11 09:00:00 16.1 4 Norte 11 Este 0 -- -- 100
2019-08-11 08:00:00 16 4 Oeste 25 Oeste 0 -- -- 99
2019-08-11 07:00:00 16.3 2 Oeste 6 Norte 0 -- -- 99
2019-08-11 06:00:00 16.5 0 Calma 8 Este 0 -- -- 99
2019-08-11 05:00:00 16.6 0 Calma 6 Este 0 -- -- 99
2019-08-11 04:00:00 16.6 2 Este 18 Sudeste 0 -- -- 99
2019-08-11 03:00:00 16.7 6 Sur 13 Noroeste 0 -- -- 98
2019-08-11 02:00:00 16.9 5 Sudeste 12 Norte 0 -- -- 95
2019-08-11 01:00:00 18 6 Este 10 Este 0 -- -- 86
2019-08-11 00:00:00 18.2 2 Norte 8 Este 0 -- -- 84
2019-08-10 23:00:00 18.3 5 Este 8 Este 0 -- -- 81
2019-08-10 22:00:00 18.6 6 Este 13 Este 0 -- -- 81
2019-08-10 21:00:00 18.9 7 Este 14 Este 0 -- -- 77
2019-08-10 20:00:00 19.7 6 Nordeste 15 Este 0 -- -- 76
2019-08-10 19:00:00 20.4 5 Este 21 Este 0 -- -- 76
2019-08-10 18:00:00 21.4 11 Este 26 Este 0 -- -- 70
2019-08-10 17:00:00 21.1 12 Este 30 Este 0 -- -- 73
2019-08-10 16:00:00 21 12 Este 28 Este 0 -- -- 78
2019-08-10 15:00:00 22.3 6 Este 18 Este 0 -- -- 69
2019-08-10 14:00:00 21.1 6 Nordeste 21 Este 0 -- -- 77
2019-08-10 13:00:00 19.7 14 Este 22 Este 0 -- -- 87
2019-08-10 12:00:00 19.1 12 Este 22 Sudeste 0 -- -- 88
2019-08-10 11:00:00 18.6 3 Noroeste 8 Sudeste 0 -- -- 96
2019-08-10 10:00:00 17.8 2 Oeste 5 Sudeste 0 -- -- 98
2019-08-10 09:00:00 17.4 2 Norte 5 Noroeste 0 -- -- 100
2019-08-10 08:00:00 16.9 4 Sudeste 6 Sudeste 0 -- -- 100
2019-08-10 07:00:00 16.7 3 Sudeste 5 Sudeste 0 -- -- 99
2019-08-10 06:00:00 16.8 4 Noroeste 6 Noroeste 0 -- -- 99
2019-08-10 05:00:00 16.9 2 Sudeste 4 Sudeste 0 -- -- 99
2019-08-10 04:00:00 17 3 Noroeste 4 Noroeste 0 -- -- 98
2019-08-10 03:00:00 17.1 0 Calma 3 Sur 0 -- -- 98
2019-08-10 02:00:00 17.2 0 Calma 5 Oeste 0 -- -- 97
2019-08-10 01:00:00 17.5 5 Noroeste 9 Noroeste 0 -- -- 96
2019-08-10 00:00:00 18.1 4 Oeste 6 Noroeste 0 -- -- 96
2019-08-09 23:00:00 18.9 3 Este 15 Sudeste 0 -- -- 92
2019-08-09 22:00:00 19.4 8 Nordeste 20 Este 0 -- -- 91
2019-08-09 21:00:00 21.7 10 Este 20 Este 0 -- -- 83
2019-08-09 20:00:00 26.7 4 Noroeste 21 Oeste 0 -- -- 62
2019-08-09 19:00:00 26.7 4 Este 10 Oeste 0 -- -- 74
2019-08-09 18:00:00 26.9 4 Norte 35 Oeste 0 -- -- 69
2019-08-09 17:00:00 27.8 14 Oeste 32 Oeste 0 -- -- 58
2019-08-09 16:00:00 27.2 7 Sudeste 17 Este 0 -- -- 64
2019-08-09 15:00:00 30 5 Este 33 Oeste 0 -- -- 56
2019-08-09 14:00:00 29.7 21 Oeste 40 Oeste 0 -- -- 53
2019-08-09 13:00:00 31.8 14 Oeste 43 Noroeste 0 -- -- 51
2019-08-09 12:00:00 31 23 Oeste 42 Oeste 0 -- -- 47
2019-08-09 11:00:00 29.5 17 Oeste 32 Oeste 0 -- -- 49
2019-08-09 10:00:00 29 19 Oeste 35 Sudoeste 0 -- -- 47
2019-08-09 09:00:00 28.1 17 Sudoeste 43 Oeste 0 -- -- 47
2019-08-09 08:00:00 27 18 Oeste 33 Oeste 0 -- -- 51
2019-08-09 07:00:00 27 10 Oeste 20 Oeste 0 -- -- 51
2019-08-09 06:00:00 27.5 4 Nordeste 19 Este 0 -- -- 52
2019-08-09 05:00:00 28 8 Sudoeste 46 Sudoeste 0 -- -- 51
2019-08-09 04:00:00 28.5 24 Oeste 52 Oeste 0 -- -- 50
2019-08-09 03:00:00 27.3 12 Oeste 31 Oeste 0 -- -- 53
2019-08-09 02:00:00 26 10 Oeste 21 Oeste 0 -- -- 61
2019-08-09 01:00:00 24.2 2 Sudoeste 12 Oeste 0 -- -- 74
2019-08-09 00:00:00 23.9 8 Sudoeste 13 Sudoeste 0 -- -- 79
2019-08-08 23:00:00 25.4 2 Oeste 8 Oeste 0 -- -- 71
2019-08-08 22:00:00 27 3 Oeste 8 Oeste 0 -- -- 66
2019-08-08 21:00:00 29.3 0 Calma 9 Este 0 -- -- 58
2019-08-08 20:00:00 32.1 3 Nordeste 9 Noroeste 0 -- -- 56
2019-08-08 19:00:00 32.4 3 Norte 8 Nordeste 0 -- -- 49
2019-08-08 18:00:00 30.4 8 Noroeste 32 Oeste 0 -- -- 51
2019-08-08 17:00:00 33 10 Sudoeste 30 Sudoeste 0 -- -- 46
2019-08-08 16:00:00 32 10 Sudoeste 27 Sudoeste 0 -- -- 46
2019-08-08 15:00:00 32.5 9 Sudoeste 24 Oeste 0 -- -- 47
2019-08-08 14:00:00 31.4 9 Sudoeste 31 Oeste 0 -- -- 48
2019-08-08 13:00:00 29.9 14 Oeste 27 Sudoeste 0 -- -- 51
2019-08-08 12:00:00 28.9 10 Sudoeste 23 Sudeste 0 -- -- 54
2019-08-08 11:00:00 27.5 7 Sur 19 Sur 0 -- -- 58
2019-08-08 10:00:00 26.5 6 Sur 20 Sudoeste 0 -- -- 61
2019-08-08 09:00:00 23 6 Noroeste 17 Noroeste 0 -- -- 68
2019-08-08 08:00:00 22.1 3 Sudoeste 11 Sudoeste 0 -- -- 71
2019-08-08 07:00:00 20.1 4 Sudoeste 11 Sudeste 0 -- -- 80
2019-08-08 06:00:00 20.4 5 Oeste 13 Noroeste 0 -- -- 78
2019-08-08 05:00:00 19.9 4 Este 12 Noroeste 0 -- -- 84
2019-08-08 04:00:00 20.1 7 Oeste 10 Oeste 0 -- -- 81
2019-08-08 03:00:00 21.7 7 Noroeste 12 Oeste 0 -- -- 74
2019-08-08 02:00:00 21.5 3 Sudeste 8 Sudeste 0 -- -- 85
2019-08-08 01:00:00 21.3 0 Calma 5 Noroeste 0 -- -- 94
2019-08-08 00:00:00 21.9 2 Norte 4 Oeste 0 -- -- 92
2019-08-07 23:00:00 22.2 3 Oeste 9 Este 0 -- -- 90
2019-08-07 22:00:00 23 5 Nordeste 12 Este 0.2 -- -- 87
2019-08-07 21:00:00 24.2 3 Este 11 Este 0 -- -- 81
2019-08-07 20:00:00 25 5 Este 18 Este 0 -- -- 76
2019-08-07 19:00:00 25.8 5 Nordeste 19 Este 0 -- -- 73
2019-08-07 18:00:00 26 6 Nordeste 16 Este 0 -- -- 71
2019-08-07 17:00:00 26.4 6 Nordeste 20 Este 0 -- -- 68
2019-08-07 16:00:00 26.7 8 Este 20 Sudeste 0 -- -- 61
2019-08-07 15:00:00 26.2 12 Este 21 Sudeste 0 -- -- 62
2019-08-07 14:00:00 25.8 10 Este 19 Este 0 -- -- 68
2019-08-07 13:00:00 24.8 12 Este 21 Este 0 -- -- 68
2019-08-07 12:00:00 23.9 6 Sudeste 11 Sudeste 0 -- -- 78
2019-08-07 11:00:00 22 4 Sudeste 11 Sudeste 0.2 -- -- 82
2019-08-07 10:00:00 19.8 3 Noroeste 5 Oeste 0 -- -- 94
2019-08-07 09:00:00 17.8 2 Noroeste 4 Sudeste 0 -- -- 99
2019-08-07 08:00:00 17.4 2 Sudeste 3 Sudeste 0 -- -- 99
2019-08-07 07:00:00 17.3 2 Oeste 8 Oeste 0 -- -- 99
2019-08-07 06:00:00 17.5 0 Calma 6 Sur 0 -- -- 99
2019-08-07 05:00:00 17.7 2 Sur 7 Noroeste 0 -- -- 98
2019-08-07 04:00:00 17.8 3 Noroeste 7 Este 0.2 -- -- 98
2019-08-07 03:00:00 18.1 3 Noroeste 14 Este 0 -- -- 96
2019-08-07 02:00:00 18.6 6 Noroeste 14 Este 0 -- -- 94
2019-08-07 01:00:00 19.6 4 Sudeste 6 Noroeste 0 -- -- 86
2019-08-07 00:00:00 20 5 Norte 12 Norte 0 -- -- 82
2019-08-06 23:00:00 20.3 3 Nordeste 18 Noroeste 0 -- -- 84
2019-08-06 22:00:00 20.9 6 Norte 21 Norte 0 -- -- 81
2019-08-06 21:00:00 21.6 3 Sudeste 10 Noroeste 0 -- -- 82
2019-08-06 20:00:00 22.9 4 Nordeste 19 Este 0 -- -- 77
2019-08-06 19:00:00 23.4 11 Este 23 Este 0 -- -- 82
2019-08-06 18:00:00 23.9 13 Este 28 Este 0 -- -- 81
2019-08-06 17:00:00 25.5 18 Este 27 Este 0 -- -- 75
2019-08-06 16:00:00 26.6 14 Este 24 Este 0 -- -- 73
2019-08-06 15:00:00 27.1 11 Este 22 Este 0 -- -- 73
2019-08-06 14:00:00 26.1 8 Sudeste 13 Este 0 -- -- 71
2019-08-06 13:00:00 25.2 6 Sudeste 17 Sudeste 0 -- -- 75
2019-08-06 12:00:00 23.7 10 Sudeste 14 Este 0 -- -- 79
2019-08-06 11:00:00 21.7 9 Sudeste 14 Este 0 -- -- 87
2019-08-06 10:00:00 19.1 3 Este 10 Noroeste 0.2 -- -- 98
2019-08-06 09:00:00 17.9 2 Sudeste 4 Este 0 -- -- 99
2019-08-06 08:00:00 17.6 2 Este 5 Oeste 0 -- -- 99
2019-08-06 07:00:00 17.6 0 Calma 2 Este 0 -- -- 98
2019-08-06 06:00:00 17.5 0 Calma 4 Este 0 -- -- 97
2019-08-06 05:00:00 18 0 Calma 2 Sur 0 -- -- 96
2019-08-06 04:00:00 18.1 0 Calma 3 Sudoeste 0 -- -- 96
2019-08-06 03:00:00 18.4 2 Este 5 Este 0 -- -- 96
2019-08-06 02:00:00 18.4 0 Calma 6 Oeste 0 -- -- 95
2019-08-06 01:00:00 18.9 0 Calma 3 Oeste 0 -- -- 95
2019-08-06 00:00:00 18.9 0 Calma 4 Noroeste 0 -- -- 95
2019-08-05 23:00:00 19.3 0 Calma 4 Este 0 -- -- 94
2019-08-05 22:00:00 19.4 0 Calma 11 Este 0 -- -- 93
2019-08-05 21:00:00 19.8 5 Nordeste 13 Este 0 -- -- 91
2019-08-05 20:00:00 20.2 5 Este 17 Este 0 -- -- 90
2019-08-05 19:00:00 20.4 7 Este 18 Sudeste 0 -- -- 89
2019-08-05 18:00:00 20.5 6 Nordeste 17 Este 0 -- -- 88
2019-08-05 17:00:00 21.3 5 Nordeste 15 Este 0 -- -- 85
2019-08-05 16:00:00 22.1 7 Este 17 Este -- -- -- 83
2019-08-05 15:00:00 22.7 7 Sudeste 12 Sudeste 0 -- -- 81
2019-08-05 14:00:00 22 4 Sudeste 10 Sur 0 -- -- 84
2019-08-05 13:00:00 21.5 2 Sur 5 Sudoeste 0 -- -- 84
2019-08-05 12:00:00 20.5 3 Sur 9 Sudeste 0 -- -- 92
2019-08-05 11:00:00 19.2 2 Sudoeste 5 Sudoeste 0 -- -- 97
2019-08-05 10:00:00 18.3 2 Oeste 7 Este 0 -- -- 98
2019-08-05 09:00:00 18.2 0 Calma 4 Noroeste 0 -- -- 98
2019-08-05 08:00:00 18 0 Calma 3 Norte 0 -- -- 98
2019-08-05 07:00:00 17.9 3 Este 4 Este 0 -- -- 98
2019-08-05 06:00:00 17.8 3 Oeste 3 Noroeste 0 -- -- 97
2019-08-05 05:00:00 18 0 Calma 4 Este 0 -- -- 97
2019-08-05 04:00:00 17.9 0 Calma 5 Nordeste 0 -- -- 97
2019-08-05 03:00:00 17.9 3 Este 6 Este 0 -- -- 96
2019-08-05 02:00:00 18.2 0 Calma 4 Este 0 -- -- 96
2019-08-05 01:00:00 18.3 2 Norte 6 Este 0 -- -- 96
2019-08-05 00:00:00 18.8 4 Este 8 Este 0 -- -- 95
2019-08-04 23:00:00 19.1 2 Nordeste 9 Oeste 0 -- -- 92
2019-08-04 22:00:00 19.3 4 Noroeste 5 Noroeste 0 -- -- 92
2019-08-04 21:00:00 19.7 4 Este 12 Norte 0 -- -- 89
2019-08-04 20:00:00 19.5 4 Nordeste 15 Este 0 -- -- 94
2019-08-04 19:00:00 19.9 8 Este 19 Este 0 -- -- 92
2019-08-04 18:00:00 20.7 6 Norte 15 Norte 0 -- -- 86
2019-08-04 17:00:00 21.8 3 Norte 13 Norte 0 -- -- 83
2019-08-04 16:00:00 22 6 Norte 19 Este 0 -- -- 82
2019-08-04 15:00:00 23 7 Este 15 Este 0 -- -- 78
2019-08-04 14:00:00 23.2 5 Sudeste 11 Este 0 -- -- 78
2019-08-04 13:00:00 21.8 3 Sudeste 8 Sudeste 0 -- -- 82
2019-08-04 12:00:00 20.7 4 Sudeste 9 Sudeste 0 -- -- 85
2019-08-04 11:00:00 20.3 3 Sudeste 9 Este 0 -- -- 88
2019-08-04 10:00:00 19.7 2 Este 5 Este 0 -- -- 90
2019-08-04 09:00:00 19.2 3 Sudeste 4 Sudeste 0 -- -- 93
2019-08-04 08:00:00 19 0 Calma 3 Sur 0 -- -- 95
2019-08-04 07:00:00 18.9 2 Este 5 Sudeste 0 -- -- 95
2019-08-04 06:00:00 19 0 Calma 3 Noroeste 0 -- -- 95
2019-08-04 05:00:00 19.1 0 Calma 5 Sudeste 0 -- -- 94
2019-08-04 04:00:00 19.3 2 Sur 4 Sudoeste 0 -- -- 94
2019-08-04 03:00:00 19.7 0 Calma 4 Oeste 0 -- -- 91
2019-08-04 02:00:00 19.8 3 Este 5 Este 0 -- -- 90
2019-08-04 01:00:00 20.2 3 Noroeste 8 Nordeste 0 -- -- 89
2019-08-04 00:00:00 20.6 2 Norte 6 Oeste 0 -- -- 88
2019-08-03 23:00:00 21.3 0 Calma 5 Noroeste 0 -- -- 85
2019-08-03 22:00:00 21.7 0 Calma 12 Este 0 -- -- 87
2019-08-03 21:00:00 23 2 Norte 17 Este 0 -- -- 85
2019-08-03 20:00:00 24.2 10 Este 25 Este 0 -- -- 79
2019-08-03 19:00:00 26.2 15 Este 27 Este 0 -- -- 73
2019-08-03 18:00:00 27.9 13 Este 24 Nordeste 0 -- -- 69
2019-08-03 17:00:00 28.4 13 Este 29 Este 0 -- -- 67
2019-08-03 16:00:00 28.9 12 Este 24 Este 0 -- -- 65
2019-08-03 15:00:00 28.5 14 Este 22 Este 0 -- -- 61
2019-08-03 14:00:00 27.3 12 Este 21 Sudeste 0 -- -- 64
2019-08-03 13:00:00 26.1 9 Sudeste 17 Sudeste 0 -- -- 66
2019-08-03 12:00:00 23.8 4 Sur 17 Este 0 -- -- 76
2019-08-03 11:00:00 21.6 9 Sudeste 14 Sudeste 0 -- -- 80
2019-08-03 10:00:00 19.7 3 Sudeste 8 Sudeste 0 -- -- 84
2019-08-03 09:00:00 17.4 3 Este 4 Este 0 -- -- 99
2019-08-03 08:00:00 16.5 0 Calma 4 Este 0 -- -- 98
2019-08-03 07:00:00 16.6 0 Calma 3 Este 0 -- -- 98
2019-08-03 06:00:00 16.6 0 Calma 4 Este 0 -- -- 97
2019-08-03 05:00:00 17.3 2 Este 4 Sudeste 0 -- -- 94
2019-08-03 04:00:00 17.9 0 Calma 4 Noroeste 0 -- -- 94
2019-08-03 03:00:00 18 0 Calma 3 Sudoeste 0 -- -- 93
2019-08-03 02:00:00 18.1 2 Este 4 Este 0 -- -- 93
2019-08-03 01:00:00 18.1 0 Calma 5 Oeste 0 -- -- 92
2019-08-03 00:00:00 18.3 0 Calma 4 Oeste 0 -- -- 91
2019-08-02 23:00:00 18.5 0 Calma 9 Este 0 -- -- 88
2019-08-02 22:00:00 19 4 Este 12 Este 0 -- -- 86
2019-08-02 21:00:00 20.2 3 Nordeste 19 Este 0 -- -- 79
2019-08-02 20:00:00 21.7 8 Este 19 Este 0 -- -- 73
2019-08-02 19:00:00 22.8 10 Este 23 Este 0 -- -- 70
2019-08-02 18:00:00 24.1 8 Este 20 Este 0 -- -- 68
2019-08-02 17:00:00 24.2 6 Este 21 Este 0 -- -- 68
2019-08-02 16:00:00 24.5 9 Este 19 Sudeste 0 -- -- 66
2019-08-02 15:00:00 23.9 4 Norte 15 Este 0 -- -- 68
2019-08-02 14:00:00 23 5 Nordeste 20 Este 0 -- -- 71
2019-08-02 13:00:00 22.2 10 Este 19 Este 0 -- -- 75
2019-08-02 12:00:00 20.7 9 Este 18 Este 0 -- -- 80
2019-08-02 11:00:00 20.8 10 Este 21 Nordeste 0 -- -- 80
2019-08-02 10:00:00 17.6 5 Este 12 Este 0 -- -- 99
2019-08-02 09:00:00 17.4 2 Sudeste 5 Sudeste 0 -- -- 100
2019-08-02 08:00:00 17.1 0 Calma 3 Sudeste 0 -- -- 100
2019-08-02 07:00:00 17 0 Calma 3 Sudeste 0.2 -- -- 99
2019-08-02 06:00:00 17 2 Este 3 Este 0.2 -- -- 100
2019-08-02 05:00:00 17 0 Calma 3 Este 0.2 -- -- 99
2019-08-02 04:00:00 17 0 Calma 5 Sudeste 0.6 -- -- 99
2019-08-02 03:00:00 17.1 4 Este 8 Este 0.4 -- -- 98
2019-08-02 02:00:00 17.4 2 Sudeste 5 Este 0 -- -- 97
2019-08-02 01:00:00 17.7 0 Calma 4 Sudeste 0 -- -- 95
2019-08-02 00:00:00 17.8 3 Este 6 Este 0 -- -- 94
2019-08-01 23:00:00 18 0 Calma 5 Este 0 -- -- 93
2019-08-01 22:00:00 18.1 4 Este 11 Noroeste 0 -- -- 92
2019-08-01 21:00:00 18.3 4 Nordeste 17 Norte 0 -- -- 90
2019-08-01 20:00:00 18.5 7 Noroeste 16 Norte 0 -- -- 90
2019-08-01 19:00:00 19.2 3 Norte 18 Noroeste 0 -- -- 89
2019-08-01 18:00:00 19.4 12 Noroeste 25 Noroeste 0 -- -- 88
2019-08-01 17:00:00 21 11 Norte 21 Norte 0 -- -- 82
2019-08-01 16:00:00 23.8 4 Noroeste 18 Este 0 -- -- 76
2019-08-01 15:00:00 24.9 5 Oeste 12 Sudeste 0 -- -- 71
2019-08-01 14:00:00 24.5 5 Sur 15 Este 0.2 -- -- 72
2019-08-01 13:00:00 22.9 4 Sudeste 15 Este 0.2 -- -- 77
2019-08-01 12:00:00 20.3 3 Sudoeste 12 Sudeste 0.8 -- -- 93
2019-08-01 11:00:00 17.6 7 Sudeste 10 Sudeste 0.8 -- -- 100
2019-08-01 10:00:00 16.3 4 Oeste 14 Oeste 1.4 -- -- 100
2019-08-01 09:00:00 15.8 4 Este 29 Sudoeste 4 -- -- 99
2019-08-01 08:00:00 15.8 7 Norte 23 Este 15.4 -- -- 99
2019-08-01 07:00:00 16 15 Este 35 Sudoeste 20.8 -- -- 98
2019-08-01 06:00:00 16.3 8 Sudeste 31 Oeste 13.6 -- -- 96
2019-08-01 05:00:00 16.4 3 Noroeste 5 Este 0 -- -- 92
2019-08-01 04:00:00 16.6 0 Calma 6 Noroeste 0 -- -- 91
2019-08-01 03:00:00 16.9 0 Calma 3 Oeste 0 -- -- 90
2019-08-01 02:00:00 17.1 0 Calma -- -- 0 -- -- 89
2019-08-01 01:00:00 17.2 2 Noroeste 4 Noroeste 0 -- -- 88
2019-08-01 00:00:00 17.3 3 Oeste 6 Norte 0 -- -- 86
2019-07-31 23:00:00 17.6 3 Nordeste 7 Este 0 -- -- 84
2019-07-31 22:00:00 18.1 3 Nordeste 8 Norte 0 -- -- 82
2019-07-31 21:00:00 18.9 4 Nordeste 13 Este 0 -- -- 79
2019-07-31 20:00:00 19.7 5 Nordeste 17 Este 0 -- -- 76
2019-07-31 19:00:00 20.5 6 Este 22 Sudeste 0 -- -- 72
2019-07-31 18:00:00 21.3 12 Este 24 Este 0 -- -- 70
2019-07-31 17:00:00 22.4 10 Este 24 Este 0 -- -- 63
2019-07-31 16:00:00 23 10 Sudeste 24 Este 0 -- -- 63
2019-07-31 15:00:00 22.4 12 Este 24 Este 0 -- -- 60
2019-07-31 14:00:00 21.7 8 Este 24 Este 0 -- -- 61
2019-07-31 13:00:00 21.3 11 Este 26 Este 0 -- -- 62
2019-07-31 12:00:00 20.4 14 Este 22 Este 0 -- -- 63
2019-07-31 11:00:00 18.4 7 Sudeste 12 Sudeste 0 -- -- 79
2019-07-31 10:00:00 14.9 5 Sudeste 9 Sudeste 0 -- -- 94
2019-07-31 09:00:00 12.1 2 Norte 4 Sudoeste 0 -- -- 100
2019-07-31 08:00:00 11.4 0 Calma 5 Norte 0 -- -- 100
2019-07-31 07:00:00 11.1 2 Sudoeste 8 Noroeste 0 -- -- 98
2019-07-31 06:00:00 11.4 0 Calma 2 Oeste 0 -- -- 98
2019-07-31 05:00:00 11.9 0 Calma 4 Oeste 0 -- -- 98
2019-07-31 04:00:00 12 0 Calma 3 Sudeste 0 -- -- 98
2019-07-31 03:00:00 12 0 Calma 5 Oeste 0 -- -- 96
2019-07-31 02:00:00 12.7 4 Oeste 6 Oeste 0 -- -- 94
2019-07-31 01:00:00 13.4 0 Calma 4 Sudoeste 0 -- -- 91
2019-07-31 00:00:00 14.3 2 Sur 7 Noroeste 0 -- -- 87
2019-07-30 23:00:00 15.1 2 Nordeste 9 Este 0 -- -- 82
2019-07-30 22:00:00 16.1 4 Este 14 Este 0 -- -- 77
2019-07-30 21:00:00 17.2 4 Nordeste 20 Este 0 -- -- 74
2019-07-30 20:00:00 18.6 4 Este 13 Este 0 -- -- 67
2019-07-30 19:00:00 19.3 5 Nordeste 22 Este 0 -- -- 65
2019-07-30 18:00:00 19.5 5 Nordeste 21 Este 0 -- -- 66
2019-07-30 17:00:00 18.9 11 Norte 27 Norte 0 -- -- 71
2019-07-30 16:00:00 20.4 13 Sudeste 22 Sudeste 0 -- -- 64
2019-07-30 15:00:00 19.4 14 Este 24 Nordeste 0 -- -- 68
2019-07-30 14:00:00 19.8 10 Este 28 Noroeste 0 -- -- 66
2019-07-30 13:00:00 19.6 4 Sudeste 16 Este 0 -- -- 66
2019-07-30 12:00:00 18.4 7 Este 13 Sudeste 0 -- -- 71
2019-07-30 11:00:00 17.7 4 Sudeste 9 Sudeste 0 -- -- 75
2019-07-30 10:00:00 16.5 4 Este 7 Sudeste 0 -- -- 85
2019-07-30 09:00:00 15.7 3 Noroeste 5 Este 0 -- -- 93
2019-07-30 08:00:00 15.2 0 Calma 10 Sudoeste 0 -- -- 94
2019-07-30 07:00:00 15.2 3 Sur 7 Oeste 0 -- -- 95
2019-07-30 06:00:00 15.5 2 Oeste 4 Este 0 -- -- 95
2019-07-30 05:00:00 15.5 0 Calma 8 Sudeste 0 -- -- 94
2019-07-30 04:00:00 15.6 3 Sudeste 10 Norte 0 -- -- 93
2019-07-30 03:00:00 16 6 Noroeste 14 Noroeste 0 -- -- 91
2019-07-30 02:00:00 16.3 0 Calma 4 Noroeste 0 -- -- 90
2019-07-30 01:00:00 16.5 5 Sudeste 10 Este 0 -- -- 87
2019-07-30 00:00:00 17 3 Norte 10 Este 0 -- -- 86
2019-07-29 23:00:00 17.3 5 Sudeste 17 Noroeste 0 -- -- 84
2019-07-29 22:00:00 18.2 4 Norte 17 Noroeste 0 -- -- 77
2019-07-29 21:00:00 18.5 3 Nordeste 20 Este 0 -- -- 74
2019-07-29 20:00:00 18.6 4 Sudeste 15 Nordeste 0 -- -- 75
2019-07-29 19:00:00 18.6 6 Norte 24 Norte 0 -- -- 80
2019-07-29 18:00:00 19.6 8 Norte 21 Nordeste 0 -- -- 80
2019-07-29 17:00:00 20.5 5 Norte 37 Noroeste 0 -- -- 77
2019-07-29 16:00:00 23.3 10 Norte 24 Norte 0 -- -- 68
2019-07-29 15:00:00 25.5 9 Sudeste 31 Sudeste 0 -- -- 63
2019-07-29 14:00:00 26.2 16 Este 28 Este 0 -- -- 65
2019-07-29 13:00:00 27 8 Este 14 Este 0 -- -- 54
2019-07-29 12:00:00 24.4 7 Sudeste 12 Sudeste 0 -- -- 63
2019-07-29 11:00:00 20.3 3 Sudoeste 11 Sudeste 0 -- -- 74
2019-07-29 10:00:00 15.9 3 Sudeste 9 Sudeste 0 -- -- 100
2019-07-29 09:00:00 13.2 0 Calma 5 Sudeste 0 -- -- 100
2019-07-29 08:00:00 12.8 2 Sudoeste 5 Sudoeste 0 -- -- 100
2019-07-29 07:00:00 12.9 3 Noroeste 4 Oeste 0 -- -- 100
2019-07-29 06:00:00 13.1 0 Calma 5 Noroeste 0 -- -- 100
2019-07-29 05:00:00 13.4 0 Calma 5 Oeste 0 -- -- 100
2019-07-29 04:00:00 13.6 2 Oeste 4 Oeste 0 -- -- 99
2019-07-29 03:00:00 14 2 Sudoeste 4 Oeste 0 -- -- 98
2019-07-29 02:00:00 14.4 2 Oeste 4 Noroeste 0 -- -- 97
2019-07-29 01:00:00 15 0 Calma 5 Sudeste 0 -- -- 95
2019-07-29 00:00:00 15.9 3 Sur 6 Oeste 0 -- -- 91
2019-07-28 23:00:00 16.9 3 Sudoeste 10 Este 0 -- -- 88
2019-07-28 22:00:00 18.2 6 Este 9 Este 0 -- -- 83
2019-07-28 21:00:00 20.2 2 Nordeste 12 Norte 0 -- -- 72
2019-07-28 20:00:00 21.8 5 Norte 12 Este 0 -- -- 67
2019-07-28 19:00:00 21.9 5 Nordeste 18 Nordeste 0 -- -- 63
2019-07-28 18:00:00 22 6 Este 23 Este 0.2 -- -- 62
2019-07-28 17:00:00 21.5 12 Este 22 Este 0 -- -- 66
2019-07-28 16:00:00 21.2 14 Este 26 Este 0 -- -- 66
2019-07-28 15:00:00 21.9 12 Este 20 Sudeste 0 -- -- 66
2019-07-28 14:00:00 20 8 Sudeste 13 Este 0 -- -- 76
2019-07-28 13:00:00 18.2 5 Sudeste 9 Este 0.2 -- -- 88
2019-07-28 12:00:00 17.6 2 Nordeste 12 Sudeste 0.2 -- -- 87
2019-07-28 11:00:00 16.7 5 Sudeste 10 Sudeste 0 -- -- 97
2019-07-28 10:00:00 15.7 3 Sudeste 8 Oeste 0 -- -- 100
2019-07-28 09:00:00 14.8 2 Sur 9 Sudoeste 0 -- -- 100
2019-07-28 08:00:00 14.5 2 Sur 7 Noroeste 0 -- -- 100
2019-07-28 07:00:00 14.3 0 Calma 6 Sudeste 0 -- -- 100
2019-07-28 06:00:00 14.2 3 Este 7 Este 0.2 -- -- 100
2019-07-28 05:00:00 14.2 3 Sudeste 6 Este 0 -- -- 100
2019-07-28 04:00:00 14.1 4 Noroeste 9 Sur 0.2 -- -- 100
2019-07-28 03:00:00 14 5 Sudeste 9 Sudoeste 0.6 -- -- 100
2019-07-28 02:00:00 14.1 4 Noroeste 7 Oeste 0 -- -- 99
2019-07-28 01:00:00 14.1 2 Nordeste 6 Este 0.4 -- -- 99
2019-07-28 00:00:00 14.2 4 Noroeste 5 Noroeste 0 -- -- 98
2019-07-27 23:00:00 14.6 3 Sudoeste 8 Sudoeste 0 -- -- 96
2019-07-26 12:00:00 -- -- -- -- -- -- -- -- --
2019-07-26 11:00:00 20.1 5 Sudoeste 21 Noroeste 0 -- -- 97
2019-07-26 10:00:00 19.4 2 Noroeste 14 Este 0 -- -- 98
2019-07-26 09:00:00 18.7 9 Este 22 Oeste 1 -- -- 99
2019-07-26 08:00:00 18.9 4 Sudoeste 13 Oeste 1.4 -- -- 99
2019-07-26 07:00:00 18.6 6 Noroeste 18 Norte 1.4 -- -- 98
2019-07-26 06:00:00 18.6 5 Norte 15 Este 3 -- -- 98
2019-07-26 05:00:00 19.1 5 Noroeste 14 Oeste 2.4 -- -- 96
2019-07-26 04:00:00 19.5 2 Sudeste 8 Este 0 -- -- 96
2019-07-26 03:00:00 19.6 4 Nordeste 8 Este 0 -- -- 96
2019-07-26 02:00:00 20 5 Este 17 Norte 0 -- -- 94
2019-07-26 01:00:00 20.4 4 Norte 16 Norte 0 -- -- 91
2019-07-26 00:00:00 20.6 4 Este 10 Este 0 -- -- 95
2019-07-25 23:00:00 21.1 3 Noroeste 14 Norte 0 -- -- 94
2019-07-25 22:00:00 21.2 9 Noroeste 19 Noroeste 0 -- -- 93
2019-07-25 21:00:00 21.4 4 Norte 15 Este 0 -- -- 94
2019-07-25 20:00:00 21.6 9 Oeste 22 Sudeste 17 -- -- 95
2019-07-25 19:00:00 23 15 Noroeste 28 Norte 0 -- -- 84
2019-07-25 18:00:00 25.7 18 Este 42 Este 0 -- -- 76
2019-07-25 17:00:00 29.1 22 Este 36 Este 0 -- -- 68
2019-07-25 16:00:00 34 13 Este 21 Este 0 -- -- 51
2019-07-25 15:00:00 36 8 Este 30 Sudeste 0 -- -- 43
2019-07-25 14:00:00 37.2 14 Sudeste 35 Sudeste 0 -- -- 29
2019-07-25 13:00:00 35.8 21 Sudeste 40 Sudeste 0 -- -- 30
2019-07-25 12:00:00 34.4 27 Sudeste 44 Sudeste 0 -- -- 31
2019-07-25 11:00:00 34.2 6 Sudeste 14 Sudeste 0 -- -- 32
2019-07-25 10:00:00 31.5 4 Sur 15 Sur 0 -- -- 37
2019-07-25 09:00:00 28.8 9 Oeste 17 Oeste 0 -- -- 41
2019-07-25 08:00:00 27.2 6 Noroeste 19 Noroeste 0 -- -- 45
2019-07-25 07:00:00 25.7 8 Noroeste 17 Noroeste 0 -- -- 48
2019-07-25 06:00:00 24.6 5 Norte 17 Oeste 0 -- -- 54
2019-07-25 05:00:00 26 3 Oeste 18 Noroeste 0 -- -- 50
2019-07-25 04:00:00 27 6 Noroeste 19 Oeste 0 -- -- 42
2019-07-25 03:00:00 26.6 8 Noroeste 22 Noroeste 0 -- -- 45
2019-07-25 02:00:00 26.1 6 Oeste 17 Oeste 0 -- -- 53
2019-07-25 01:00:00 23.2 5 Oeste 9 Noroeste 0 -- -- 72
2019-07-25 00:00:00 24.6 2 Oeste 11 Noroeste 0 -- -- 67
2019-07-24 23:00:00 26.3 7 Noroeste 10 Oeste 0 -- -- 60
2019-07-24 22:00:00 27.8 2 Este 17 Nordeste 0 -- -- 60
2019-07-24 21:00:00 29.6 5 Nordeste 22 Nordeste 0 -- -- 58
2019-07-24 20:00:00 33.1 11 Este 44 Oeste 0 -- -- 35
2019-07-24 19:00:00 36.7 4 Nordeste 30 Sudeste 0 -- -- 29
2019-07-24 18:00:00 37.7 20 Sudeste 30 Sudeste 0 -- -- 25
2019-07-24 17:00:00 37.6 24 Este 35 Este 0 -- -- 26
2019-07-24 16:00:00 37.7 12 Este 30 Sudeste 0 -- -- 32
2019-07-24 15:00:00 37.3 6 Este 19 Este 0 -- -- 29
2019-07-24 14:00:00 34.7 9 Este 18 Nordeste 0 -- -- 40
2019-07-24 13:00:00 32.2 11 Este 16 Sudeste 0 -- -- 50
2019-07-24 12:00:00 29.2 6 Sudeste 13 Sudeste 0 -- -- 59
2019-07-24 11:00:00 26 5 Sudeste 11 Sudeste 0 -- -- 70
2019-07-24 10:00:00 22.6 3 Sudoeste 5 Oeste 0 -- -- 81
2019-07-24 09:00:00 20.4 2 Noroeste 7 Sudeste 0 -- -- 87
2019-07-24 08:00:00 18.8 0 Calma 4 Noroeste 0 -- -- 93
2019-07-24 07:00:00 17.8 2 Este 5 Sudeste 0 -- -- 91
2019-07-24 06:00:00 18.5 3 Oeste 5 Noroeste 0 -- -- 90
2019-07-24 05:00:00 19.3 2 Noroeste 12 Este 0 -- -- 87
2019-07-24 04:00:00 20.3 3 Este 10 Oeste 0 -- -- 84
2019-07-24 03:00:00 21.5 2 Sudeste 8 Este 0 -- -- 80
2019-07-24 02:00:00 22.3 2 Sudeste 12 Este 0 -- -- 74
2019-07-24 01:00:00 22.9 3 Nordeste 17 Este 0 -- -- 69
2019-07-24 00:00:00 23.6 4 Oeste 12 Noroeste 0 -- -- 64
2019-07-23 23:00:00 24.6 6 Este 15 Este 0 -- -- 61
2019-07-23 22:00:00 26.2 4 Noroeste 29 Noroeste 0 -- -- 54
2019-07-23 21:00:00 26.7 13 Este 25 Este 0 -- -- 53
2019-07-23 20:00:00 30.2 13 Noroeste 80 Sudoeste 0 -- -- 42
2019-07-23 19:00:00 37.1 10 Sudeste 25 Sudeste 0 -- -- 26
2019-07-23 18:00:00 38 18 Este 31 Este 0 -- -- 26
2019-07-23 17:00:00 38.8 15 Sudeste 28 Sudeste 0 -- -- 25
2019-07-23 16:00:00 37 9 Sur 33 Sudeste 0 -- -- 26
2019-07-23 15:00:00 37.8 17 Sudeste 35 Sudeste 0 -- -- 27
2019-07-23 14:00:00 35.5 12 Sur 25 Sudeste 0 -- -- 29
2019-07-23 13:00:00 34.9 10 Sudoeste 32 Sudeste 0 -- -- 30
2019-07-23 12:00:00 34.9 13 Sudeste 32 Sudeste 0 -- -- 31
2019-07-23 11:00:00 32.9 15 Sur 30 Sur 0 -- -- 30
2019-07-23 10:00:00 30.4 7 Oeste 21 Noroeste 0 -- -- 36
2019-07-23 09:00:00 28.9 10 Noroeste 20 Oeste 0 -- -- 35
2019-07-23 08:00:00 27.8 7 Sudoeste 17 Oeste 0 -- -- 38
2019-07-23 07:00:00 24.6 8 Noroeste 19 Noroeste 0 -- -- 48
2019-07-23 06:00:00 20.1 4 Este 14 Oeste 0 -- -- 97
2019-07-23 05:00:00 20.4 2 Nordeste 8 Noroeste 0 -- -- 98
2019-07-23 04:00:00 21.1 2 Nordeste 5 Este 0 -- -- 98
2019-07-23 03:00:00 21.3 3 Oeste 7 Oeste 0 -- -- 96
2019-07-23 02:00:00 22.3 3 Nordeste 10 Este 0 -- -- 95
2019-07-23 01:00:00 22.7 3 Este 8 Este 0 -- -- 93
2019-07-23 00:00:00 23.7 0 Calma 4 Oeste 0 -- -- 91
2019-07-22 23:00:00 24.9 2 Oeste 5 Noroeste 0 -- -- 85
2019-07-22 22:00:00 26.4 2 Sudeste 9 Este 0 -- -- 80
2019-07-22 21:00:00 27.6 3 Nordeste 14 Este 0 -- -- 77
2019-07-22 20:00:00 28.8 8 Este 19 Este 0 -- -- 72
2019-07-22 19:00:00 30.3 12 Este 24 Este 0 -- -- 67
2019-07-22 18:00:00 31.7 10 Este 22 Este 0 -- -- 60
2019-07-22 17:00:00 34.5 7 Este 17 Este 0 -- -- 49
2019-07-22 16:00:00 34.6 7 Este 17 Este 0 -- -- 38
2019-07-22 15:00:00 33.3 5 Este 16 Este 0 -- -- 52
2019-07-22 14:00:00 30.6 10 Este 24 Sudeste 0 -- -- 60
2019-07-22 13:00:00 28.8 13 Sudeste 23 Este 0 -- -- 61
2019-07-22 12:00:00 25.8 11 Sudeste 19 Sudeste 0 -- -- 68
2019-07-22 11:00:00 23.2 6 Sudeste 12 Sudeste 0 -- -- 78
2019-07-22 10:00:00 19.2 5 Este 8 Este 0 -- -- 95
2019-07-22 09:00:00 18 2 Oeste 5 Noroeste 0 -- -- 97
2019-07-22 08:00:00 17.8 2 Sudoeste 4 Oeste 0 -- -- 96
2019-07-22 07:00:00 18 0 Calma 4 Este 0 -- -- 95
2019-07-22 06:00:00 18.8 3 Este 6 Este 0 -- -- 94
2019-07-22 05:00:00 19.2 3 Este 4 Este 0 -- -- 93
2019-07-22 04:00:00 19.6 0 Calma 4 Noroeste 0 -- -- 91
2019-07-22 03:00:00 19.8 0 Calma 5 Este 0 -- -- 91
2019-07-22 02:00:00 19.9 5 Este 8 Este 0 -- -- 90
2019-07-22 01:00:00 20.2 2 Oeste 5 Norte 0 -- -- 88
2019-07-22 00:00:00 20.2 2 Nordeste 14 Norte 0 -- -- 87
2019-07-21 23:00:00 20.4 6 Este 15 Este 0 -- -- 86
2019-07-21 22:00:00 21 6 Este 15 Norte 0 -- -- 86
2019-07-21 21:00:00 21.6 4 Nordeste 14 Este 0 -- -- 84
2019-07-21 20:00:00 22.1 4 Nordeste 13 Este 0 -- -- 85
2019-07-21 19:00:00 23.2 3 Nordeste 14 Este 0 -- -- 81
2019-07-21 18:00:00 23.3 9 Este 22 Este 0 -- -- 81
2019-07-21 17:00:00 24 11 Este 25 Este 0 -- -- 76
2019-07-21 16:00:00 24 15 Este 29 Este 0 -- -- 77
2019-07-21 15:00:00 24.5 14 Sudeste 26 Este 0 -- -- 76
2019-07-21 14:00:00 25.6 13 Sudeste 27 Sudeste 0 -- -- 73
2019-07-21 13:00:00 26 6 Este 18 Sudeste 0 -- -- 70
2019-07-21 12:00:00 24.4 9 Sudeste 18 Sudeste 0 -- -- 76
2019-07-21 11:00:00 22 5 Sudeste 9 Sudeste 0 -- -- 85
2019-07-21 10:00:00 21.1 4 Sudeste 8 Sudeste 0 -- -- 88
2019-07-21 09:00:00 19.1 0 Calma 4 Este 0 -- -- 98
2019-07-21 08:00:00 18.5 0 Calma 3 Sudeste 0 -- -- 99
2019-07-21 07:00:00 18.3 2 Oeste 3 Este 0 -- -- 99
2019-07-21 06:00:00 18.3 0 Calma 2 Noroeste 0 -- -- 99
2019-07-21 05:00:00 18.3 2 Noroeste 4 Oeste 0.2 -- -- 99
2019-07-21 04:00:00 18.4 4 Oeste 6 Oeste 0.8 -- -- 98
2019-07-21 03:00:00 18.6 2 Sudoeste 4 Este 1 -- -- 97
2019-07-21 02:00:00 18.8 0 Calma 4 Este 0.2 -- -- 96
2019-07-21 01:00:00 19 0 Calma 8 Sudeste 0 -- -- 95
2019-07-21 00:00:00 19.1 6 Sudeste 13 Este 0 -- -- 94
2019-07-20 23:00:00 19.9 5 Nordeste 12 Este 0 -- -- 87
2019-07-20 22:00:00 20.1 3 Norte 17 Norte 0 -- -- 84
2019-07-20 21:00:00 20.3 4 Norte 13 Sudeste 0 -- -- 84
2019-07-20 20:00:00 20.1 6 Este 15 Este 0 -- -- 89
2019-07-20 19:00:00 20.6 8 Este 17 Este 0 -- -- 86
2019-07-20 18:00:00 21.2 4 Este 17 Este 0 -- -- 84
2019-07-20 17:00:00 22.1 5 Nordeste 20 Este 0 -- -- 81
2019-07-20 16:00:00 22.2 13 Este 22 Este 0 -- -- 80
2019-07-20 15:00:00 22.9 12 Este 20 Este 0 -- -- 77
2019-07-20 14:00:00 23.4 2 Este 18 Este 0 -- -- 75
2019-07-20 13:00:00 22.8 10 Este 18 Sudeste 0 -- -- 77
2019-07-20 12:00:00 22.9 11 Este 21 Sudeste 0 -- -- 77
2019-07-20 11:00:00 21.9 6 Sudeste 12 Este 0 -- -- 82
2019-07-20 10:00:00 20.8 3 Sudeste 6 Este 0 -- -- 87
2019-07-20 09:00:00 19.8 2 Sudeste 4 Sur 0 -- -- 88
2019-07-20 08:00:00 19.6 3 Sudeste 5 Este 0 -- -- 96
2019-07-20 07:00:00 19.7 0 Calma 5 Sudoeste 0 -- -- 95
2019-07-20 06:00:00 19.6 0 Calma 5 Este 0 -- -- 96
2019-07-20 05:00:00 19.7 4 Este 6 Este 0 -- -- 95
2019-07-20 04:00:00 19.9 2 Noroeste 8 Este 0 -- -- 94
2019-07-20 03:00:00 20.2 5 Este 8 Este 0 -- -- 92
2019-07-20 02:00:00 20.6 5 Noroeste 13 Oeste 0 -- -- 89
2019-07-20 01:00:00 20.9 2 Sudoeste 5 Oeste 0 -- -- 90
2019-07-20 00:00:00 21 0 Calma 8 Sur 0 -- -- 88
2019-07-19 23:00:00 21.9 2 Nordeste 8 Este 0 -- -- 85
2019-07-19 22:00:00 23.7 2 Oeste 8 Este 0 -- -- 79
2019-07-19 21:00:00 25.3 9 Este 18 Este 0 -- -- 72
2019-07-19 20:00:00 27.1 8 Nordeste 21 Este 0 -- -- 66
2019-07-19 19:00:00 28 11 Este 29 Este 0 -- -- 62
2019-07-19 18:00:00 28.5 15 Este 31 Este 0 -- -- 59
2019-07-19 17:00:00 30.3 10 Este 21 Este 0 -- -- 53
2019-07-19 16:00:00 30.7 10 Este 23 Este 0 -- -- 46
2019-07-19 15:00:00 29.4 11 Este 22 Sudeste 0 -- -- 48
2019-07-19 14:00:00 28.2 13 Sudeste 22 Este 0 -- -- 49
2019-07-19 13:00:00 25.4 12 Sudeste 18 Este 0 -- -- 54
2019-07-19 12:00:00 23.1 9 Sudeste 14 Sudeste 0 -- -- 63
2019-07-19 11:00:00 19.5 3 Sur 9 Este 0 -- -- 79
2019-07-19 10:00:00 15.1 3 Sudeste 8 Sudeste 0 -- -- 100
2019-07-19 09:00:00 13.3 2 Sur 5 Oeste 0 -- -- 100
2019-07-19 08:00:00 12.8 3 Oeste 5 Oeste 0 -- -- 100
2019-07-19 07:00:00 12.8 2 Oeste 4 Noroeste 0 -- -- 99
2019-07-19 06:00:00 12.8 2 Noroeste 4 Oeste 0 -- -- 98
2019-07-19 05:00:00 13.2 2 Oeste 2 Oeste 0 -- -- 98
2019-07-19 04:00:00 13.5 0 Calma 3 Noroeste 0 -- -- 97
2019-07-19 03:00:00 14 0 Calma 4 Oeste 0 -- -- 96
2019-07-19 02:00:00 14.7 0 Calma 5 Oeste 0 -- -- 94
2019-07-19 01:00:00 15.5 2 Sudeste 5 Noroeste 0 -- -- 92
2019-07-19 00:00:00 16.4 2 Sur 7 Este 0 -- -- 88
2019-07-18 23:00:00 17.6 3 Norte 11 Este 0 -- -- 84
2019-07-18 22:00:00 18.4 8 Este 14 Este 0 -- -- 80
2019-07-18 21:00:00 19.8 5 Nordeste 14 Este 0 -- -- 74
2019-07-18 20:00:00 21.4 5 Nordeste 15 Nordeste 0 -- -- 68
2019-07-18 19:00:00 22.3 5 Nordeste 27 Este 0 -- -- 65
2019-07-18 18:00:00 22.9 13 Este 26 Este 0 -- -- 62
2019-07-18 17:00:00 23.2 15 Este 27 Este 0 -- -- 62
2019-07-18 16:00:00 22.9 10 Este 25 Este 0 -- -- 64
2019-07-18 15:00:00 23.1 8 Este 25 Este 0 -- -- 63
2019-07-18 14:00:00 22.8 13 Este 23 Este 0 -- -- 66
2019-07-18 13:00:00 23.3 16 Este 24 Este 0 -- -- 61
2019-07-18 12:00:00 22.4 10 Este 22 Sudeste 0 -- -- 71
2019-07-18 11:00:00 20.2 6 Este 11 Este 0 -- -- 78
2019-07-18 10:00:00 19 6 Sudeste 12 Sudeste 0 -- -- 87
2019-07-18 09:00:00 16 0 Calma 5 Noroeste 0 -- -- 98
2019-07-18 08:00:00 15.7 0 Calma 4 Oeste 0 -- -- 98
2019-07-18 07:00:00 15.5 0 Calma 4 Sudeste 0 -- -- 98
2019-07-18 06:00:00 15.6 0 Calma 5 Oeste 0 -- -- 98
2019-07-18 05:00:00 15.6 0 Calma 4 Oeste 0 -- -- 98
2019-07-18 04:00:00 16 0 Calma 5 Sudeste 0 -- -- 97
2019-07-18 03:00:00 16.8 0 Calma 4 Sudeste 0 -- -- 96
2019-07-18 02:00:00 17.1 0 Calma 4 Este 0.2 -- -- 95
2019-07-18 01:00:00 17.2 2 Oeste 6 Este 0 -- -- 92
2019-07-18 00:00:00 17.8 3 Oeste 10 Sudeste 0 -- -- 90